Time;durP1;ratioP1;P1;durP2;ratioP2;P2;SDS_P1;SDS_P2;PMS_P1;PMS_P2;Temp;Humidity;BMP_temperature;BMP_pressure;BME280_temperature;BME280_humidity;BME280_pressure;Samples;Min_cycle;Max_cycle;Signal;HPM_P1;HPM_P2
2022/10/28 00:00:13;;;;;;;0.10;0.10;;;;;;;17.22;76.03;99717.50;7358761;19;20011;-58
2022/10/28 00:02:39;;;;;;;0.10;0.10;;;;;;;17.22;76.25;99715.69;7361650;19;20565;-58
2022/10/28 00:05:05;;;;;;;0.10;0.10;;;;;;;17.20;76.00;99714.13;7362627;19;20010;-58
2022/10/28 00:07:31;;;;;;;0.10;0.10;;;;;;;17.11;76.30;99690.03;7362012;19;20026;-58
2022/10/28 00:09:56;;;;;;;0.10;0.10;;;;;;;17.23;76.25;99698.06;7362596;19;20010;-57
2022/10/28 00:12:21;;;;;;;0.10;0.10;;;;;;;17.22;75.80;99710.41;7359252;19;20014;-58
2022/10/28 00:14:47;;;;;;;0.00;0.00;;;;;;;17.23;75.99;99727.94;7363119;19;20025;-58
2022/10/28 00:17:12;;;;;;;0.10;0.10;;;;;;;17.22;76.29;99689.31;7361047;19;20018;-58
2022/10/28 00:19:37;;;;;;;0.00;0.00;;;;;;;17.10;76.14;99663.75;7362493;19;20018;-58
2022/10/28 00:22:03;;;;;;;0.10;0.10;;;;;;;17.17;76.15;99691.41;7361465;19;20813;-58
2022/10/28 00:24:28;;;;;;;0.10;0.10;;;;;;;17.22;76.63;99699.03;7360342;19;20002;-58
2022/10/28 00:26:54;;;;;;;0.10;0.10;;;;;;;17.21;76.13;99687.63;7359542;19;20443;-58
2022/10/28 00:29:19;;;;;;;0.10;0.10;;;;;;;17.14;76.43;99670.53;7361826;19;20039;-58
2022/10/28 00:31:46;;;;;;;0.00;0.00;;;;;;;17.15;76.46;99669.56;7362822;19;20027;-58
2022/10/28 00:34:14;;;;;;;0.10;0.10;;;;;;;17.19;76.51;99678.97;7363047;19;20775;-59
2022/10/28 00:36:42;;;;;;;0.08;0.08;;;;;;;17.17;76.48;99670.31;7360948;19;20783;-57
2022/10/28 00:39:11;;;;;;;;;;;;;;;17.22;75.66;99659.44;7362047;19;20026;-57
2022/10/28 00:41:39;;;;;;;0.10;0.10;;;;;;;17.17;76.26;99649.19;7360932;19;19918;-58
2022/10/28 00:44:42;;;;;;;0.10;0.10;;;;;;;17.21;75.69;99636.66;7361800;19;20477;-58
2022/10/28 00:47:16;;;;;;;0.10;0.10;;;;;;;17.16;76.40;99647.50;7259292;19;2004911;-57
2022/10/28 00:49:44;;;;;;;0.10;0.10;;;;;;;17.07;76.87;99648.13;7360284;19;20647;-58
2022/10/28 00:52:17;;;;;;;0.00;0.00;;;;;;;17.08;76.47;99640.13;7361963;19;20496;-58
2022/10/28 00:54:43;;;;;;;0.10;0.10;;;;;;;17.00;77.24;99626.59;7364843;19;20014;-58
2022/10/28 00:57:20;;;;;;;0.10;0.10;;;;;;;17.03;77.16;99614.97;7367330;19;20014;-58
2022/10/28 00:59:48;;;;;;;0.10;0.10;;;;;;;16.98;77.52;99603.88;7369197;19;20002;-58
2022/10/28 01:02:14;;;;;;;0.10;0.10;;;;;;;16.96;77.33;99597.88;7366924;19;20028;-57
2022/10/28 01:04:41;;;;;;;0.00;0.00;;;;;;;16.95;77.94;99590.94;7364251;19;20010;-58
2022/10/28 01:07:08;;;;;;;0.10;0.10;;;;;;;16.90;77.72;99574.56;7367701;19;20016;-58
2022/10/28 01:09:33;;;;;;;0.10;0.10;;;;;;;16.83;77.78;99567.06;7362466;19;20529;-58
2022/10/28 01:12:02;;;;;;;0.00;0.00;;;;;;;16.90;78.04;99553.47;7367429;19;20037;-58
2022/10/28 01:14:36;;;;;;;0.00;0.00;;;;;;;16.91;77.52;99534.06;7366433;19;20058;-58
2022/10/28 01:17:28;;;;;;;0.05;0.05;;;;;;;16.90;77.53;99549.03;7366427;19;20489;-58
2022/10/28 01:20:06;;;;;;;0.10;0.10;;;;;;;16.88;77.95;99528.97;7266434;19;2004226;-58
2022/10/28 01:22:31;;;;;;;0.00;0.00;;;;;;;16.86;77.91;99534.38;7369456;19;20011;-58
2022/10/28 01:25:11;;;;;;;0.10;0.10;;;;;;;16.86;77.68;99513.28;7366457;19;20422;-58
2022/10/28 01:27:54;;;;;;;0.05;0.05;;;;;;;16.84;78.41;99529.22;7367350;19;20018;-57
2022/10/28 01:30:26;;;;;;;0.00;0.00;;;;;;;16.83;78.02;99522.25;7365383;19;20077;-58
2022/10/28 01:32:58;;;;;;;0.00;0.00;;;;;;;16.81;78.46;99518.84;7365968;19;20014;-58
2022/10/28 01:35:42;;;;;;;0.03;0.03;;;;;;;16.84;78.35;99509.91;7363585;19;20454;-58
2022/10/28 01:38:18;;;;;;;0.10;0.10;;;;;;;16.79;78.29;99486.50;7366921;19;20002;-58
2022/10/28 01:41:13;;;;;;;0.10;0.10;;;;;;;16.83;78.35;99493.25;7366626;19;20051;-58
2022/10/28 01:44:12;;;;;;;0.10;0.10;;;;;;;16.83;78.12;99472.16;7264060;19;2004508;-58
2022/10/28 01:47:13;;;;;;;0.10;0.10;;;;;;;16.83;77.79;99482.69;7264056;19;2004113;-58
2022/10/28 01:49:47;;;;;;;0.10;0.10;;;;;;;16.78;78.83;99466.34;7262725;19;2004288;-58
2022/10/28 01:52:15;;;;;;;0.00;0.00;;;;;;;16.77;79.04;99462.00;7366789;19;20373;-59
2022/10/28 01:54:45;;;;;;;0.10;0.10;;;;;;;16.76;78.58;99448.94;7366301;19;20037;-58
2022/10/28 01:57:13;;;;;;;0.10;0.10;;;;;;;16.81;79.19;99447.66;7364020;19;20031;-57
2022/10/28 01:59:39;;;;;;;0.00;0.00;;;;;;;16.82;79.07;99449.34;7356283;19;20586;-58
2022/10/28 02:02:05;;;;;;;0.10;0.10;;;;;;;16.82;79.21;99411.59;7365024;19;20830;-59
2022/10/28 02:04:30;;;;;;;0.10;0.10;;;;;;;16.81;79.23;99402.84;7360600;19;20011;-59
2022/10/28 02:06:59;;;;;;;0.00;0.00;;;;;;;16.84;79.14;99405.28;7362630;19;20565;-59
2022/10/28 02:09:38;;;;;;;0.10;0.10;;;;;;;16.85;78.98;99401.69;7364644;19;20010;-59
2022/10/28 02:12:32;;;;;;;0.10;0.10;;;;;;;16.88;79.27;99373.41;7365325;19;20351;-59
2022/10/28 02:14:57;;;;;;;0.00;0.00;;;;;;;16.85;79.67;99372.69;7262179;19;2005273;-58
2022/10/28 02:17:38;;;;;;;0.00;0.00;;;;;;;16.86;79.51;99355.91;7362499;19;20411;-58
2022/10/28 02:20:13;;;;;;;0.00;0.00;;;;;;;16.86;79.05;99340.09;7360121;19;20070;-57
2022/10/28 02:22:48;;;;;;;0.00;0.00;;;;;;;16.85;79.33;99330.50;7359605;19;21110;-58
2022/10/28 02:25:17;;;;;;;0.10;0.10;;;;;;;16.89;79.28;99322.38;7362420;19;20011;-57
2022/10/28 02:28:08;;;;;;;0.10;0.10;;;;;;;16.88;79.54;99310.13;7363640;19;20010;-58
2022/10/28 02:30:58;;;;;;;0.00;0.00;;;;;;;16.86;79.96;99303.19;7364630;19;20637;-58
2022/10/28 02:33:28;;;;;;;0.10;0.10;;;;;;;16.77;79.84;99282.72;7359865;19;20021;-58
2022/10/28 02:35:58;;;;;;;0.00;0.00;;;;;;;16.78;80.18;99251.97;7362931;19;20031;-57
2022/10/28 02:38:30;;;;;;;0.10;0.10;;;;;;;16.85;79.88;99248.75;7363878;19;20025;-58
2022/10/28 02:41:03;;;;;;;0.08;0.08;;;;;;;16.85;79.80;99248.75;7364229;19;20101;-57
2022/10/28 02:43:31;;;;;;;0.10;0.10;;;;;;;16.79;79.93;99212.31;7362179;19;20447;-58
2022/10/28 02:45:59;;;;;;;0.00;0.00;;;;;;;16.85;79.78;99216.28;7362697;19;20679;-59
2022/10/28 02:48:30;;;;;;;;;;;;;;;16.88;79.29;99186.22;7364206;19;20014;-57
2022/10/28 02:51:06;;;;;;;0.10;0.10;;;;;;;16.82;79.69;99169.88;7362641;19;20661;-59
2022/10/28 02:53:41;;;;;;;0.10;0.10;;;;;;;16.85;79.16;99169.66;7361651;19;20007;-58
2022/10/28 02:56:09;;;;;;;0.00;0.00;;;;;;;16.81;80.08;99162.94;7360334;19;20671;-58
2022/10/28 02:58:39;;;;;;;0.00;0.00;;;;;;;16.82;79.47;99190.97;7361892;19;20371;-59
2022/10/28 03:01:05;;;;;;;0.00;0.00;;;;;;;16.80;80.07;99177.06;7362002;19;20482;-60
2022/10/28 03:03:31;;;;;;;0.10;0.10;;;;;;;16.78;79.92;99171.09;7354650;19;20018;-60
2022/10/28 03:05:56;;;;;;;0.10;0.10;;;;;;;16.79;80.17;99175.41;7360636;19;20149;-59
2022/10/28 03:08:24;;;;;;;0.10;0.10;;;;;;;16.81;79.78;99156.81;7363491;19;20016;-60
2022/10/28 03:10:49;;;;;;;0.10;0.10;;;;;;;16.78;79.98;99152.63;7361184;19;20014;-60
2022/10/28 03:13:15;;;;;;;0.10;0.10;;;;;;;16.78;80.41;99136.81;7364019;19;20019;-59
2022/10/28 03:15:40;;;;;;;0.10;0.10;;;;;;;16.78;80.27;99110.44;7361055;19;20034;-57
2022/10/28 03:18:05;;;;;;;0.10;0.10;;;;;;;16.80;79.90;99112.97;7359305;19;20006;-59
2022/10/28 03:20:31;;;;;;;0.10;0.10;;;;;;;16.79;80.32;99093.66;7353312;19;20803;-59
2022/10/28 03:22:56;;;;;;;0.10;0.10;;;;;;;16.76;80.48;99056.97;7365144;19;20029;-59
2022/10/28 03:25:21;;;;;;;0.10;0.10;;;;;;;16.77;80.38;99071.00;7359229;19;20018;-58
2022/10/28 03:27:47;;;;;;;0.10;0.10;;;;;;;16.77;80.75;99066.56;7362139;19;20014;-59
2022/10/28 03:30:13;;;;;;;0.10;0.10;;;;;;;16.78;81.00;99056.88;7362281;19;20043;-58
2022/10/28 03:32:41;;;;;;;0.10;0.10;;;;;;;16.78;80.60;99047.19;7363040;19;20466;-59
2022/10/28 03:35:07;;;;;;;0.13;0.13;;;;;;;16.70;80.70;99012.59;7361131;19;20006;-57
2022/10/28 03:37:32;;;;;;;0.10;0.10;;;;;;;16.79;80.89;99033.03;7361359;19;20033;-59
2022/10/28 03:40:01;;;;;;;0.10;0.10;;;;;;;16.80;80.81;99033.88;7362225;19;20013;-59
2022/10/28 03:42:26;;;;;;;0.10;0.10;;;;;;;16.80;80.64;99015.44;7362913;19;20014;-58
2022/10/28 03:44:52;;;;;;;0.00;0.00;;;;;;;16.80;80.86;99018.06;7360347;19;20023;-58
2022/10/28 03:47:17;;;;;;;0.10;0.10;;;;;;;16.79;80.95;99001.41;7362796;19;20025;-58
2022/10/28 03:49:42;;;;;;;0.00;0.00;;;;;;;16.80;80.63;98986.44;7363243;19;20552;-58
2022/10/28 03:52:08;;;;;;;0.00;0.00;;;;;;;16.73;80.80;98962.34;7360525;19;20015;-58
2022/10/28 03:54:33;;;;;;;0.10;0.10;;;;;;;16.79;80.52;98969.78;7360907;19;20588;-58
2022/10/28 03:56:58;;;;;;;0.10;0.10;;;;;;;16.80;80.97;98971.44;7359367;19;20739;-59
2022/10/28 03:59:24;;;;;;;0.10;0.10;;;;;;;16.78;81.10;98931.19;7363175;19;20007;-58
2022/10/28 04:01:49;;;;;;;0.10;0.10;;;;;;;16.74;81.03;98934.19;7361528;19;20478;-59
2022/10/28 04:04:15;;;;;;;0.10;0.10;;;;;;;16.82;81.09;98935.25;7360320;19;20094;-56
2022/10/28 04:06:40;;;;;;;0.10;0.10;;;;;;;16.82;81.13;98927.34;7360517;19;20022;-58
2022/10/28 04:09:05;;;;;;;0.08;0.08;;;;;;;16.80;80.76;98908.19;7362049;19;20022;-58
2022/10/28 04:11:31;;;;;;;0.00;0.00;;;;;;;16.75;81.03;98909.50;7361070;19;20815;-58
2022/10/28 04:13:56;;;;;;;0.00;0.00;;;;;;;16.83;81.19;98918.50;7362562;19;20006;-58
2022/10/28 04:16:22;;;;;;;0.10;0.10;;;;;;;16.78;80.82;98914.53;7359187;19;20011;-59
2022/10/28 04:18:47;;;;;;;0.05;0.05;;;;;;;16.83;80.84;98917.66;7363143;19;20011;-59
2022/10/28 04:21:12;;;;;;;0.10;0.10;;;;;;;16.83;80.76;98923.78;7361472;19;20732;-58
2022/10/28 04:23:38;;;;;;;0.08;0.08;;;;;;;16.72;81.21;98913.19;7362868;19;20022;-58
2022/10/28 04:26:04;;;;;;;0.05;0.05;;;;;;;16.80;80.51;98897.63;7359489;19;20023;-59
2022/10/28 04:28:29;;;;;;;0.10;0.10;;;;;;;16.88;80.69;98904.97;7369102;19;20378;-59
2022/10/28 04:30:54;;;;;;;0.10;0.10;;;;;;;16.88;81.07;98909.38;7375980;19;20490;-58
2022/10/28 04:33:20;;;;;;;0.00;0.00;;;;;;;16.91;80.88;98903.88;7376708;19;20011;-58
2022/10/28 04:35:45;;;;;;;0.10;0.10;;;;;;;16.90;80.50;98881.94;7375579;19;20006;-58
2022/10/28 04:38:12;;;;;;;0.10;0.10;;;;;;;16.90;80.39;98912.75;7377180;19;20590;-60
2022/10/28 04:40:38;;;;;;;0.10;0.10;;;;;;;16.89;80.24;98990.16;7376253;19;20011;-61
2022/10/28 04:43:03;;;;;;;0.10;0.10;;;;;;;16.89;78.60;99027.09;7376458;19;20770;-59
2022/10/28 04:45:30;;;;;;;0.00;0.00;;;;;;;16.79;76.28;99085.75;7374029;19;20018;-59
2022/10/28 04:48:00;;;;;;;0.10;0.10;;;;;;;16.52;74.51;99093.00;7376757;19;20014;-59
2022/10/28 04:50:26;;;;;;;0.10;0.10;;;;;;;16.40;74.96;99125.53;7372875;19;20033;-59
2022/10/28 04:52:52;;;;;;;0.00;0.00;;;;;;;16.17;74.77;99167.53;7374052;19;20069;-58
2022/10/28 04:55:18;;;;;;;0.00;0.00;;;;;;;15.83;75.05;99185.66;7375350;19;20025;-58
2022/10/28 04:57:52;;;;;;;0.00;0.00;;;;;;;15.74;74.58;99288.91;7376280;19;20006;-58
2022/10/28 05:00:17;;;;;;;0.10;0.10;;;;;;;15.53;74.81;99288.53;7374505;19;20010;-58
2022/10/28 05:02:43;;;;;;;0.10;0.10;;;;;;;15.25;75.32;99252.63;7376166;19;20452;-59
2022/10/28 05:05:08;;;;;;;0.10;0.10;;;;;;;15.14;76.57;99270.91;7373996;19;20575;-59
2022/10/28 05:07:33;;;;;;;0.00;0.00;;;;;;;14.96;76.30;99264.22;7375652;19;20083;-59
2022/10/28 05:09:59;;;;;;;0.00;0.00;;;;;;;14.81;77.40;99257.31;7372420;19;20014;-59
2022/10/28 05:12:24;;;;;;;0.10;0.10;;;;;;;14.67;76.60;99272.13;7374837;19;20031;-58
2022/10/28 05:14:49;;;;;;;0.00;0.00;;;;;;;14.54;77.38;99285.16;7372830;19;20093;-58
2022/10/28 05:17:15;;;;;;;0.00;0.00;;;;;;;14.45;77.91;99313.78;7376620;19;20446;-57
2022/10/28 05:19:44;;;;;;;0.00;0.00;;;;;;;14.23;77.79;99312.41;7373972;19;20034;-58
2022/10/28 05:22:09;;;;;;;0.00;0.00;;;;;;;14.22;77.23;99325.66;7374761;19;20025;-58
2022/10/28 05:24:34;;;;;;;0.00;0.00;;;;;;;14.16;77.67;99353.13;7372956;19;20018;-57
2022/10/28 05:27:00;;;;;;;0.08;0.08;;;;;;;14.06;78.68;99365.09;7374277;19;22636;-58
2022/10/28 05:29:25;;;;;;;0.10;0.10;;;;;;;13.70;78.58;99332.19;7373805;19;20014;-58
2022/10/28 05:31:51;;;;;;;0.00;0.00;;;;;;;13.94;79.10;99407.81;7374221;19;20007;-58
2022/10/28 05:34:16;;;;;;;0.10;0.10;;;;;;;13.89;78.99;99425.56;7371751;19;20010;-58
2022/10/28 05:36:41;;;;;;;0.00;0.00;;;;;;;13.85;79.17;99445.06;7373065;19;20015;-58
2022/10/28 05:39:07;;;;;;;0.10;0.10;;;;;;;13.81;78.67;99459.28;7371511;19;20423;-59
2022/10/28 05:41:32;;;;;;;0.03;0.03;;;;;;;13.74;78.52;99462.25;7365996;19;20513;-58
2022/10/28 05:43:57;;;;;;;0.00;0.00;;;;;;;13.68;78.42;99474.84;7364581;19;20018;-57
2022/10/28 05:46:23;;;;;;;0.10;0.10;;;;;;;13.47;78.78;99471.63;7365673;19;20010;-59
2022/10/28 05:48:48;;;;;;;0.00;0.00;;;;;;;13.54;78.51;99483.47;7366518;19;20581;-58
2022/10/28 05:51:14;;;;;;;0.00;0.00;;;;;;;13.47;78.87;99503.09;7367179;19;20010;-57
2022/10/28 05:53:40;;;;;;;0.03;0.03;;;;;;;13.31;78.92;99491.72;7365665;19;20622;-58
2022/10/28 05:56:07;;;;;;;0.10;0.10;;;;;;;13.35;79.25;99535.22;7366720;19;20383;-58
2022/10/28 05:58:33;;;;;;;0.00;0.00;;;;;;;13.27;78.57;99538.22;7357642;19;20011;-58
2022/10/28 06:00:58;;;;;;;0.00;0.00;;;;;;;13.21;78.53;99549.00;7365424;19;20037;-58
2022/10/28 06:03:23;;;;;;;0.00;0.00;;;;;;;13.15;78.63;99550.19;7365416;19;20014;-58
2022/10/28 06:05:49;;;;;;;0.00;0.00;;;;;;;13.08;78.32;99569.78;7362397;19;20019;-59
2022/10/28 06:08:15;;;;;;;0.00;0.00;;;;;;;13.00;78.97;99582.41;7363936;19;20014;-59
2022/10/28 06:10:41;;;;;;;0.00;0.00;;;;;;;12.94;79.11;99593.22;7366594;19;20014;-58
2022/10/28 06:13:07;;;;;;;0.00;0.00;;;;;;;12.88;78.61;99604.00;7363928;19;20010;-58
2022/10/28 06:15:33;;;;;;;0.00;0.00;;;;;;;12.70;79.03;99593.47;7364130;19;20772;-56
2022/10/28 06:17:59;;;;;;;0.00;0.00;;;;;;;12.76;78.96;99617.69;7362938;19;20011;-58
2022/10/28 06:20:24;;;;;;;0.00;0.00;;;;;;;12.61;77.87;99627.97;7363755;19;20040;-58
2022/10/28 06:22:53;;;;;;;0.00;0.00;;;;;;;12.63;79.55;99647.09;7363894;19;20010;-57
2022/10/28 06:25:20;;;;;;;0.00;0.00;;;;;;;12.57;79.02;99660.50;7362587;19;20089;-58
2022/10/28 06:27:53;;;;;;;0.00;0.00;;;;;;;12.53;79.17;99672.03;7364548;19;20575;-57
2022/10/28 06:30:18;;;;;;;0.00;0.00;;;;;;;12.47;80.01;99677.56;7362073;19;20126;-59
2022/10/28 06:32:43;;;;;;;0.00;0.00;;;;;;;12.41;80.30;99678.66;7367317;19;20719;-58
2022/10/28 06:35:09;;;;;;;0.00;0.00;;;;;;;12.39;79.85;99696.22;7365967;19;20014;-58
2022/10/28 06:37:34;;;;;;;0.00;0.00;;;;;;;12.37;79.58;99707.72;7362227;19;20376;-58
2022/10/28 06:40:00;;;;;;;0.00;0.00;;;;;;;12.35;80.37;99720.00;7364084;19;20014;-57
2022/10/28 06:42:25;;;;;;;0.00;0.00;;;;;;;12.32;79.96;99721.00;7363639;19;20834;-57
2022/10/28 06:44:51;;;;;;;0.00;0.00;;;;;;;12.01;80.29;99673.56;7362614;19;20041;-58
2022/10/28 06:47:16;;;;;;;0.00;0.00;;;;;;;12.30;80.86;99748.16;7365154;19;20003;-58
2022/10/28 06:49:42;;;;;;;0.00;0.00;;;;;;;12.28;81.52;99750.00;7364235;19;20034;-57
2022/10/28 06:52:07;;;;;;;0.00;0.00;;;;;;;12.27;80.46;99753.56;7363570;19;20006;-56
2022/10/28 06:54:32;;;;;;;0.00;0.00;;;;;;;12.27;81.10;99748.31;7366088;19;20018;-58
2022/10/28 06:56:58;;;;;;;0.00;0.00;;;;;;;12.25;80.51;99768.47;7365568;19;20003;-58
2022/10/28 06:59:23;;;;;;;0.03;0.03;;;;;;;12.24;81.16;99774.63;7361618;19;20170;-59
2022/10/28 07:01:49;;;;;;;0.00;0.00;;;;;;;12.22;80.88;99787.78;7360375;19;20441;-59
2022/10/28 07:04:14;;;;;;;0.00;0.00;;;;;;;12.20;80.61;99787.81;7361079;19;20122;-59
2022/10/28 07:06:40;;;;;;;0.10;0.10;;;;;;;12.13;80.41;99789.03;7361223;19;20006;-58
2022/10/28 07:09:06;;;;;;;0.00;0.00;;;;;;;12.16;80.69;99793.25;7364566;19;20014;-58
2022/10/28 07:11:32;;;;;;;0.00;0.00;;;;;;;12.14;80.59;99801.19;7357706;19;20040;-59
2022/10/28 07:13:57;;;;;;;0.00;0.00;;;;;;;12.07;79.87;99802.38;7365687;19;22133;-58
2022/10/28 07:16:22;;;;;;;0.00;0.00;;;;;;;12.13;79.02;99836.13;7363333;19;20018;-59
2022/10/28 07:18:48;;;;;;;0.00;0.00;;;;;;;12.08;80.10;99832.88;7366217;19;20014;-59
2022/10/28 07:21:13;;;;;;;0.00;0.00;;;;;;;12.07;79.85;99841.63;7362867;19;20006;-59
2022/10/28 07:23:39;;;;;;;0.00;0.00;;;;;;;12.07;80.56;99849.50;7354428;19;20028;-59
2022/10/28 07:26:04;;;;;;;0.00;0.00;;;;;;;12.05;80.87;99869.63;7364744;19;20843;-59
2022/10/28 07:28:30;;;;;;;0.00;0.00;;;;;;;12.02;80.84;99885.47;7364330;19;20006;-59
2022/10/28 07:31:00;;;;;;;0.08;0.08;;;;;;;12.05;80.12;99902.78;7363768;19;20055;-59
2022/10/28 07:33:26;;;;;;;0.10;0.10;;;;;;;12.03;80.79;99912.47;7362320;19;20036;-59
2022/10/28 07:35:51;;;;;;;0.00;0.00;;;;;;;12.03;80.14;99918.56;7360040;19;20862;-59
2022/10/28 07:38:17;;;;;;;0.00;0.00;;;;;;;12.03;79.77;99928.19;7361114;19;20022;-59
2022/10/28 07:40:42;;;;;;;0.00;0.00;;;;;;;11.83;80.15;99905.44;7353287;19;20011;-59
2022/10/28 07:43:08;;;;;;;0.00;0.00;;;;;;;12.01;80.69;99940.47;7362369;19;20719;-58
2022/10/28 07:45:34;;;;;;;0.00;0.00;;;;;;;11.95;80.92;99949.41;7360151;19;20014;-59
2022/10/28 07:47:59;;;;;;;0.00;0.00;;;;;;;12.01;81.18;99961.38;7364137;19;20006;-59
2022/10/28 07:50:25;;;;;;;0.00;0.00;;;;;;;11.99;80.89;99958.84;7360630;19;20048;-58
2022/10/28 07:52:50;;;;;;;0.10;0.10;;;;;;;11.98;81.23;99967.63;7361632;19;20035;-59
2022/10/28 07:55:16;;;;;;;0.00;0.00;;;;;;;12.00;80.53;99967.53;7362854;19;20022;-59
2022/10/28 07:57:41;;;;;;;0.10;0.10;;;;;;;11.85;80.86;99958.53;7360125;19;20034;-59
2022/10/28 08:00:07;;;;;;;0.03;0.03;;;;;;;12.00;81.64;99991.94;7362833;19;20018;-59
2022/10/28 08:02:32;;;;;;;0.00;0.00;;;;;;;12.02;81.78;99994.53;7361279;19;20019;-59
2022/10/28 08:05:00;;;;;;;0.00;0.00;;;;;;;11.95;82.10;99986.03;7359807;19;20021;-60
2022/10/28 08:07:25;;;;;;;;;;;;;;;12.15;81.51;100007.03;7359390;19;20497;-59
2022/10/28 08:09:51;;;;;;;0.00;0.00;;;;;;;12.10;82.31;99988.03;7361721;19;19919;-59
2022/10/28 08:12:17;;;;;;;0.00;0.00;;;;;;;12.36;82.55;100005.31;7360030;19;20031;-59
2022/10/28 08:14:42;;;;;;;0.00;0.00;;;;;;;12.51;82.44;100019.53;7352728;19;20006;-60
2022/10/28 08:17:07;;;;;;;0.00;0.00;;;;;;;12.65;82.20;100014.56;7355784;19;20355;-60
2022/10/28 08:19:33;;;;;;;0.00;0.00;;;;;;;12.83;82.46;100022.59;7359501;19;20010;-59
2022/10/28 08:21:58;;;;;;;0.00;0.00;;;;;;;12.96;82.27;100024.59;7358602;19;20021;-59
2022/10/28 08:24:24;;;;;;;0.00;0.00;;;;;;;13.10;81.53;100024.00;7361098;19;20481;-60
2022/10/28 08:26:49;;;;;;;0.05;0.05;;;;;;;13.24;81.66;100026.91;7359516;19;20007;-60
2022/10/28 08:29:15;;;;;;;0.00;0.00;;;;;;;13.40;81.73;100036.69;7358707;19;20017;-60
2022/10/28 08:31:40;;;;;;;0.10;0.10;;;;;;;13.54;81.08;100044.81;7359910;19;20007;-60
2022/10/28 08:34:06;;;;;;;0.00;0.00;;;;;;;13.67;81.06;100035.44;7359671;19;20406;-59
2022/10/28 08:36:32;;;;;;;0.00;0.00;;;;;;;13.84;80.74;100041.66;7359510;19;20011;-60
2022/10/28 08:39:01;;;;;;;0.00;0.00;;;;;;;13.99;80.78;100051.47;7356491;19;20010;-60
2022/10/28 08:41:43;;;;;;;0.10;0.10;;;;;;;14.19;80.78;100054.00;7357083;19;20010;-60
2022/10/28 08:44:14;;;;;;;0.00;0.00;;;;;;;14.33;80.06;100055.09;7362449;19;20019;-60
2022/10/28 08:46:55;;;;;;;0.00;0.00;;;;;;;14.49;79.91;100056.09;7360482;19;20427;-60
2022/10/28 08:49:23;;;;;;;0.00;0.00;;;;;;;14.53;79.86;100060.25;7361441;19;20030;-60
2022/10/28 08:52:10;;;;;;;0.00;0.00;;;;;;;14.68;79.74;100051.63;7359993;19;20018;-60
2022/10/28 08:54:46;;;;;;;0.00;0.00;;;;;;;14.84;79.98;100074.50;7360942;19;20006;-60
2022/10/28 08:57:17;;;;;;;0.10;0.10;;;;;;;14.90;79.16;100071.56;7359859;19;20006;-59
2022/10/28 08:59:44;;;;;;;0.10;0.10;;;;;;;14.85;78.81;100069.19;7358247;19;20584;-60
2022/10/28 09:02:18;;;;;;;0.00;0.00;;;;;;;15.14;78.81;100074.72;7359865;19;20411;-60
2022/10/28 09:04:45;;;;;;;0.10;0.10;;;;;;;15.22;78.51;100089.19;7359027;19;20017;-59
2022/10/28 09:07:19;;;;;;;0.00;0.00;;;;;;;15.34;78.93;100086.84;7359697;19;20029;-60
2022/10/28 09:09:47;;;;;;;0.00;0.00;;;;;;;15.32;77.96;100069.38;7359348;19;20010;-60
2022/10/28 09:12:22;;;;;;;;;;;;;;;15.70;79.60;100103.34;7360178;19;20026;-60
2022/10/28 09:15:03;;;;;;;0.10;0.10;;;;;;;15.83;78.58;100101.78;7359716;19;19976;-60
2022/10/28 09:18:03;;;;;;;0.10;0.10;;;;;;;16.04;78.54;100104.19;7355322;19;20010;-60
2022/10/28 09:20:54;;;;;;;0.00;0.00;;;;;;;16.22;77.93;100118.97;7262896;19;2004317;-60
2022/10/28 09:23:30;;;;;;;0.10;0.10;;;;;;;16.32;76.66;100125.44;7364273;19;20006;-60
2022/10/28 09:26:19;;;;;;;0.00;0.00;;;;;;;16.47;77.08;100123.69;7366247;19;20018;-60
2022/10/28 09:29:11;;;;;;;0.10;0.10;;;;;;;16.60;76.08;100121.25;7366005;19;20014;-60
2022/10/28 09:31:43;;;;;;;0.00;0.00;;;;;;;16.80;76.57;100120.97;7262473;19;2004441;-60
2022/10/28 09:34:17;;;;;;;0.00;0.00;;;;;;;17.03;76.62;100129.31;7366961;19;20017;-60
2022/10/28 09:36:50;;;;;;;0.10;0.10;;;;;;;17.14;75.49;100124.28;7365174;19;20010;-59
2022/10/28 09:39:21;;;;;;;0.10;0.10;;;;;;;17.26;75.23;100122.72;7366354;19;20013;-60
2022/10/28 09:41:49;;;;;;;0.10;0.10;;;;;;;17.36;74.60;100134.41;7367074;19;20481;-60
2022/10/28 09:44:21;;;;;;;0.10;0.10;;;;;;;17.50;74.45;100128.31;7367819;19;20014;-60
2022/10/28 09:46:51;;;;;;;0.03;0.03;;;;;;;17.60;73.86;100130.31;7365246;19;20011;-60
2022/10/28 09:49:23;;;;;;;0.10;0.10;;;;;;;17.82;74.13;100143.06;7366262;19;20014;-60
2022/10/28 09:51:57;;;;;;;0.10;0.10;;;;;;;18.04;74.81;100162.84;7365880;19;20032;-60
2022/10/28 09:54:34;;;;;;;0.10;0.10;;;;;;;18.27;74.36;100153.50;7367560;19;20714;-60
2022/10/28 09:57:01;;;;;;;0.05;0.05;;;;;;;18.38;73.06;100153.66;7365334;19;20032;-59
2022/10/28 09:59:26;;;;;;;0.00;0.00;;;;;;;18.52;72.72;100148.34;7364148;19;20055;-59
2022/10/28 10:01:51;;;;;;;0.10;0.10;;;;;;;18.74;72.08;100153.13;7365186;19;20099;-60
2022/10/28 10:04:20;;;;;;;0.00;0.00;;;;;;;19.01;72.41;100161.06;7364941;19;20083;-60
2022/10/28 10:06:50;;;;;;;0.00;0.00;;;;;;;19.20;72.37;100160.66;7365488;19;20027;-59
2022/10/28 10:09:22;;;;;;;0.10;0.10;;;;;;;19.33;71.25;100158.88;7365402;19;20006;-59
2022/10/28 10:11:58;;;;;;;0.10;0.10;;;;;;;19.51;70.28;100159.41;7362750;19;20022;-60
2022/10/28 10:14:29;;;;;;;0.10;0.10;;;;;;;19.69;71.04;100167.94;7364409;19;20010;-59
2022/10/28 10:17:12;;;;;;;0.10;0.10;;;;;;;19.89;72.07;100170.06;7363247;19;20021;-60
2022/10/28 10:20:01;;;;;;;0.03;0.03;;;;;;;20.15;71.66;100175.31;7364583;19;20014;-59
2022/10/28 10:22:38;;;;;;;0.10;0.10;;;;;;;20.28;70.76;100173.50;7365867;19;20019;-59
2022/10/28 10:25:19;;;;;;;0.10;0.10;;;;;;;20.47;71.22;100181.00;7362337;19;20028;-59
2022/10/28 10:27:59;;;;;;;0.00;0.00;;;;;;;20.61;70.22;100185.31;7366604;19;20047;-59
2022/10/28 10:30:36;;;;;;;0.10;0.10;;;;;;;20.72;69.06;100185.38;7365924;19;20985;-59
2022/10/28 10:33:03;;;;;;;0.10;0.10;;;;;;;20.80;68.90;100177.72;7363288;19;20565;-59
2022/10/28 10:35:30;;;;;;;0.10;0.10;;;;;;;20.93;67.63;100178.50;7365948;19;20014;-59
2022/10/28 10:37:58;;;;;;;0.10;0.10;;;;;;;21.05;69.59;100168.78;7365013;19;20738;-59
2022/10/28 10:40:35;;;;;;;0.10;0.10;;;;;;;21.03;68.54;100128.22;7365904;19;21204;-59
2022/10/28 10:43:16;;;;;;;0.10;0.10;;;;;;;21.48;68.88;100187.66;7365971;19;20006;-59
2022/10/28 10:45:50;;;;;;;0.08;0.08;;;;;;;21.53;68.65;100176.66;7365712;19;20019;-59
2022/10/28 10:48:17;;;;;;;0.10;0.10;;;;;;;21.53;66.30;100170.50;7365578;19;20010;-59
2022/10/28 10:50:45;;;;;;;0.10;0.10;;;;;;;21.72;66.50;100186.72;7362004;19;20039;-59
2022/10/28 10:53:21;;;;;;;0.10;0.10;;;;;;;21.82;67.33;100190.38;7366055;19;20015;-59
2022/10/28 10:56:05;;;;;;;0.10;0.10;;;;;;;21.96;68.55;100202.59;7365240;19;20010;-59
2022/10/28 10:58:52;;;;;;;0.10;0.10;;;;;;;21.92;66.29;100204.63;7363812;19;20010;-59
2022/10/28 11:01:27;;;;;;;0.10;0.10;;;;;;;22.01;65.97;100206.59;7363619;19;20014;-59
2022/10/28 11:04:00;;;;;;;0.10;0.10;;;;;;;22.06;67.54;100216.03;7364116;19;20110;-59
2022/10/28 11:06:29;;;;;;;0.10;0.10;;;;;;;22.01;65.59;100219.88;7361275;19;20588;-58
2022/10/28 11:09:06;;;;;;;0.10;0.10;;;;;;;22.06;67.59;100213.34;7364701;19;20070;-59
2022/10/28 11:11:37;;;;;;;0.10;0.10;;;;;;;22.01;67.95;100222.53;7363502;19;20478;-59
2022/10/28 11:14:23;;;;;;;0.10;0.10;;;;;;;21.99;69.54;100205.84;7364272;19;20043;-58
2022/10/28 11:16:52;;;;;;;0.10;0.10;;;;;;;22.13;67.37;100230.53;7363188;19;20014;-59
2022/10/28 11:19:30;;;;;;;0.10;0.10;;;;;;;22.19;68.33;100224.75;7365396;19;20031;-59
2022/10/28 11:22:11;;;;;;;0.10;0.10;;;;;;;22.24;65.13;100226.06;7365308;19;20007;-59
2022/10/28 11:24:39;;;;;;;0.10;0.10;;;;;;;22.26;66.01;100223.31;7362686;19;20828;-58
2022/10/28 11:27:27;;;;;;;0.10;0.10;;;;;;;22.34;68.52;100235.97;7362468;19;20006;-58
2022/10/28 11:29:54;;;;;;;0.10;0.10;;;;;;;22.17;64.28;100224.03;7364155;19;20010;-59
2022/10/28 11:32:41;;;;;;;0.10;0.10;;;;;;;22.31;67.22;100239.75;7364924;19;20007;-58
2022/10/28 11:35:09;;;;;;;0.10;0.10;;;;;;;22.30;65.03;100238.03;7363067;19;20014;-59
2022/10/28 11:37:54;;;;;;;0.10;0.10;;;;;;;22.43;69.12;100246.75;7359952;19;20023;-59
2022/10/28 11:40:19;;;;;;;0.10;0.10;;;;;;;22.45;65.95;100223.50;7363932;19;20085;-59
2022/10/28 11:42:56;;;;;;;0.10;0.10;;;;;;;22.68;66.84;100231.47;7363765;19;20644;-58